Time;durP1;ratioP1;P1;durP2;ratioP2;P2;SDS_P1;SDS_P2;PMS_P1;PMS_P2;Temp;Humidity;BMP_temperature;BMP_pressure;BME280_temperature;BME280_humidity;BME280_pressure;Samples;Min_cycle;Max_cycle;Signal;HPM_P1;HPM_P2
2023/03/20 00:00:32;;;;;;;11.43;7.10;;;;;;;8.36;100.00;99074.91;5011687;28;20022;-78
2023/03/20 00:02:58;;;;;;;;;;;;;;;8.35;100.00;99075.91;4987714;28;20711;-78
2023/03/20 00:05:25;;;;;;;9.65;6.22;;;;;;;8.33;100.00;99061.75;4994827;28;19952;-78
2023/03/20 00:07:51;;;;;;;8.57;6.18;;;;;;;8.29;100.00;99050.50;4991359;28;20479;-78
2023/03/20 00:10:17;;;;;;;12.73;6.38;;;;;;;8.31;100.00;99064.66;5010800;28;20030;-77
2023/03/20 00:12:44;;;;;;;9.57;6.45;;;;;;;8.35;100.00;99059.72;4994323;28;20053;-77
2023/03/20 00:15:28;;;;;;;10.80;5.90;;;;;;;8.37;100.00;99067.63;5028577;28;20018;-78
2023/03/20 00:17:54;;;;;;;8.82;5.80;;;;;;;8.32;100.00;99060.91;5013735;28;20033;-78
2023/03/20 00:20:20;;;;;;;7.78;5.50;;;;;;;8.36;100.00;99061.41;4998234;28;20410;-77
2023/03/20 00:22:45;;;;;;;9.15;5.40;;;;;;;8.26;100.00;99040.09;5012417;28;20543;-77
2023/03/20 00:25:20;;;;;;;7.82;4.88;;;;;;;8.44;100.00;99060.53;4999293;28;20112;-77
2023/03/20 00:27:46;;;;;;;7.13;5.07;;;;;;;8.43;100.00;99061.53;4996934;28;20025;-77
2023/03/20 00:30:25;;;;;;;5.03;3.20;;;;;;;8.36;100.00;99058.72;5015174;28;20032;-78
2023/03/20 00:32:51;;;;;;;5.50;3.83;;;;;;;8.33;100.00;99068.00;5009683;28;20080;-78
2023/03/20 00:35:30;;;;;;;7.97;4.78;;;;;;;8.25;100.00;99051.06;5013700;28;20029;-78
2023/03/20 00:37:57;;;;;;;5.03;3.90;;;;;;;8.15;100.00;99047.75;4997028;28;20096;-78
2023/03/20 00:40:28;;;;;;;6.60;4.25;;;;;;;8.17;100.00;99043.03;4997700;28;20073;-78
2023/03/20 00:42:59;;;;;;;6.72;4.20;;;;;;;8.22;100.00;99054.13;5022434;28;20052;-78
2023/03/20 00:45:25;;;;;;;8.55;4.97;;;;;;;8.41;100.00;99077.91;5037315;28;20034;-78
2023/03/20 00:47:51;;;;;;;7.30;4.63;;;;;;;8.28;100.00;99051.53;5032030;28;20013;-77
2023/03/20 00:50:23;;;;;;;9.88;4.97;;;;;;;8.47;100.00;99063.69;5018382;28;20041;-76
2023/03/20 00:52:50;;;;;;;5.32;3.70;;;;;;;8.29;100.00;99039.72;4998850;28;20022;-77
2023/03/20 00:55:17;;;;;;;4.53;2.63;;;;;;;8.57;100.00;99068.81;5014485;28;20032;-77
2023/03/20 00:57:52;;;;;;;4.53;3.10;;;;;;;8.41;100.00;99037.47;4997177;28;20407;-78
2023/03/20 01:00:38;;;;;;;4.63;3.20;;;;;;;8.52;100.00;99061.28;5005731;28;20026;-77
2023/03/20 01:03:31;;;;;;;6.85;4.35;;;;;;;8.44;100.00;99060.53;4999612;28;20030;-76
2023/03/20 01:05:56;;;;;;;12.25;4.95;;;;;;;8.42;100.00;99059.88;5013934;28;20042;-76
2023/03/20 01:08:25;;;;;;;7.25;4.50;;;;;;;8.33;100.00;99053.66;5015283;28;20109;-77
2023/03/20 01:10:57;;;;;;;9.52;5.30;;;;;;;8.29;100.00;99066.69;4997135;28;23039;-78
2023/03/20 01:13:25;;;;;;;6.25;4.50;;;;;;;8.25;100.00;99045.66;4997256;28;20060;-78
2023/03/20 01:15:54;;;;;;;7.53;4.70;;;;;;;8.28;100.00;99066.88;4996948;28;20026;-78
2023/03/20 01:18:20;;;;;;;6.13;4.65;;;;;;;8.22;100.00;99057.63;4993613;28;20052;-77
2023/03/20 01:20:46;;;;;;;8.50;5.30;;;;;;;8.18;100.00;99047.44;4994093;28;20034;-79
2023/03/20 01:23:12;;;;;;;7.45;5.00;;;;;;;8.29;100.00;99061.28;5024251;28;20108;-78
2023/03/20 01:25:38;;;;;;;8.15;5.63;;;;;;;8.31;100.00;99075.44;5012621;28;20051;-78
2023/03/20 01:28:13;;;;;;;8.38;5.20;;;;;;;8.23;100.00;99062.03;5000937;28;20030;-78
2023/03/20 01:30:39;;;;;;;7.28;4.85;;;;;;;8.23;100.00;99051.25;5011039;28;20117;-78
2023/03/20 01:33:16;;;;;;;7.20;4.57;;;;;;;8.29;100.00;99065.84;5009372;28;20108;-78
2023/03/20 01:35:42;;;;;;;7.38;4.70;;;;;;;8.17;100.00;99056.50;4996828;28;20021;-78
2023/03/20 01:38:20;;;;;;;4.82;4.03;;;;;;;8.25;100.00;99075.31;4992465;28;20425;-78
2023/03/20 01:41:11;;;;;;;8.25;4.70;;;;;;;8.23;100.00;99071.97;5007650;28;20022;-78
2023/03/20 01:43:36;;;;;;;9.13;5.07;;;;;;;8.22;100.00;99076.50;5002422;28;20446;-78
2023/03/20 01:46:08;;;;;;;7.18;4.70;;;;;;;8.16;100.00;99065.63;5010012;28;20030;-78
2023/03/20 01:48:59;;;;;;;5.97;4.45;;;;;;;8.24;100.00;99079.03;5010228;28;20022;-78
2023/03/20 01:51:27;;;;;;;6.55;4.57;;;;;;;8.31;100.00;99080.00;5016419;28;20030;-78
2023/03/20 01:54:06;;;;;;;6.25;4.30;;;;;;;8.29;100.00;99076.63;4995825;28;20029;-78
2023/03/20 01:56:36;;;;;;;6.28;4.20;;;;;;;8.13;100.00;99054.19;5013338;28;20060;-78
2023/03/20 01:59:09;;;;;;;7.15;4.50;;;;;;;8.12;100.00;99066.00;4997580;28;20065;-78
2023/03/20 02:01:36;;;;;;;6.38;4.43;;;;;;;7.62;100.00;99000.06;5006618;28;20030;-78
2023/03/20 02:04:02;;;;;;;7.63;4.35;;;;;;;7.84;100.00;99037.94;4999353;28;20021;-78
2023/03/20 02:06:28;;;;;;;6.57;4.05;;;;;;;8.10;100.00;99084.19;5000161;28;20033;-78
2023/03/20 02:08:53;;;;;;;4.63;3.80;;;;;;;8.16;100.00;99087.19;5362081;23;20044;-67
2023/03/20 02:11:22;;;;;;;7.55;4.93;;;;;;;8.12;100.00;99092.09;5034133;28;20499;-66
2023/03/20 02:13:50;;;;;;;7.78;4.45;;;;;;;8.15;100.00;99098.97;5031354;28;20048;-66
2023/03/20 02:16:16;;;;;;;7.10;4.75;;;;;;;8.17;100.00;99099.63;5035188;28;20029;-66
2023/03/20 02:18:44;;;;;;;7.38;4.88;;;;;;;8.20;100.00;99101.97;5026165;28;20571;-66
2023/03/20 02:21:28;;;;;;;9.18;5.10;;;;;;;8.17;100.00;99102.34;5024472;28;20035;-64
2023/03/20 02:24:28;;;;;;;7.40;4.60;;;;;;;8.19;100.00;99108.38;5029664;28;20033;-65
2023/03/20 02:27:22;;;;;;;6.57;4.35;;;;;;;8.21;100.00;99117.13;5025963;28;20499;-65
2023/03/20 02:30:06;;;;;;;6.75;4.25;;;;;;;8.21;100.00;99115.28;5035135;28;20108;-64
2023/03/20 02:32:34;;;;;;;5.38;3.92;;;;;;;8.17;100.00;99113.13;5032304;28;20056;-65
2023/03/20 02:35:11;;;;;;;8.23;4.73;;;;;;;8.17;100.00;99107.72;5035337;28;20025;-64
2023/03/20 02:37:57;;;;;;;6.63;4.05;;;;;;;8.16;100.00;99100.66;5015717;28;20029;-64
2023/03/20 02:40:46;;;;;;;5.55;3.63;;;;;;;8.11;100.00;99111.97;5039313;28;20674;-64
2023/03/20 02:43:33;;;;;;;5.15;4.10;;;;;;;8.09;100.00;99104.06;5033636;28;20174;-64
2023/03/20 02:46:33;;;;;;;5.82;3.67;;;;;;;8.08;100.00;99105.09;5037260;28;20036;-64
2023/03/20 02:49:20;;;;;;;5.78;3.70;;;;;;;8.11;100.00;99104.72;5043555;28;20116;-65
2023/03/20 02:52:18;;;;;;;6.10;4.28;;;;;;;8.11;100.00;99104.72;5025479;28;20110;-65
2023/03/20 02:54:55;;;;;;;6.25;3.90;;;;;;;8.10;100.00;99105.75;5023171;28;20537;-65
2023/03/20 02:57:33;;;;;;;7.68;3.78;;;;;;;8.07;100.00;99108.00;5034332;28;20032;-65
2023/03/20 03:00:21;;;;;;;5.32;3.53;;;;;;;8.04;100.00;99101.09;5048993;28;20029;-65
2023/03/20 03:02:53;;;;;;;5.88;4.05;;;;;;;8.00;100.00;99094.38;5052949;28;20060;-65
2023/03/20 03:05:24;;;;;;;8.05;4.32;;;;;;;8.00;100.00;99105.16;5051627;28;20024;-65
2023/03/20 03:07:53;;;;;;;7.72;4.32;;;;;;;7.98;100.00;99104.50;5033540;28;20415;-65
2023/03/20 03:10:22;;;;;;;;;;;;;;;7.99;100.00;99098.09;5032515;28;20494;-65
2023/03/20 03:12:50;;;;;;;5.78;4.63;;;;;;;8.01;100.00;99116.78;5022548;28;20342;-65
2023/03/20 03:18:16;;;;;;;14.63;5.38;;;;;;;8.07;100.00;99116.91;5055120;28;20440;-65
2023/03/20 03:20:44;;;;;;;6.95;5.55;;;;;;;8.17;100.00;99116.63;5036574;28;20086;-65
2023/03/20 03:23:26;;;;;;;9.38;5.50;;;;;;;8.10;100.00;99113.00;5026897;28;20037;-65
2023/03/20 03:25:54;;;;;;;9.18;5.20;;;;;;;8.09;100.00;99125.63;5028170;28;20039;-65
2023/03/20 03:28:47;;;;;;;6.28;4.40;;;;;;;8.07;100.00;99111.50;5038473;28;20032;-65
2023/03/20 03:31:16;;;;;;;7.07;5.25;;;;;;;8.08;100.00;99123.13;5044923;28;20024;-65
2023/03/20 03:33:45;;;;;;;6.47;4.45;;;;;;;8.00;100.00;99117.78;5039887;28;20135;-65
2023/03/20 03:36:41;;;;;;;6.30;4.45;;;;;;;8.07;100.00;99126.84;5034034;28;20039;-65
2023/03/20 03:39:23;;;;;;;6.40;4.15;;;;;;;8.14;100.00;99117.00;5029254;28;20031;-65
2023/03/20 03:42:02;;;;;;;8.02;4.75;;;;;;;8.16;100.00;99124.91;5034650;28;20492;-65
2023/03/20 03:44:54;;;;;;;7.65;4.95;;;;;;;8.13;100.00;99120.72;5050211;28;20044;-65
2023/03/20 03:47:38;;;;;;;6.18;4.40;;;;;;;8.13;100.00;99128.81;5034092;28;20171;-65
2023/03/20 03:50:27;;;;;;;5.40;3.88;;;;;;;8.10;100.00;99129.19;5032995;28;20468;-65
2023/03/20 03:52:57;;;;;;;5.88;3.70;;;;;;;8.08;100.00;99129.34;5041755;28;20040;-65
2023/03/20 03:55:34;;;;;;;4.95;3.33;;;;;;;8.10;100.00;99116.53;5031851;28;20179;-65
2023/03/20 03:58:12;;;;;;;4.07;2.80;;;;;;;8.09;100.00;99125.63;5021771;28;20033;-65
2023/03/20 04:00:42;;;;;;;3.58;2.78;;;;;;;8.11;100.00;99118.19;5041885;28;20094;-65
2023/03/20 04:03:08;;;;;;;6.05;3.00;;;;;;;8.12;100.00;99127.97;5034308;28;20486;-65
2023/03/20 04:05:36;;;;;;;7.10;3.60;;;;;;;8.07;100.00;99130.38;5035947;28;20028;-66
2023/03/20 04:08:04;;;;;;;6.32;3.67;;;;;;;8.08;100.00;99132.03;5035033;28;20041;-65
2023/03/20 04:10:30;;;;;;;5.20;3.38;;;;;;;8.08;100.00;99129.34;5035806;28;20021;-66
2023/03/20 04:12:55;;;;;;;6.82;3.83;;;;;;;8.08;100.00;99129.34;5036828;28;20029;-65
2023/03/20 04:15:20;;;;;;;5.95;3.92;;;;;;;8.07;100.00;99124.16;5021859;28;20027;-65
2023/03/20 04:17:46;;;;;;;5.82;3.60;;;;;;;8.05;100.00;99126.19;5046601;28;20045;-66
2023/03/20 04:20:12;;;;;;;9.80;4.20;;;;;;;8.05;100.00;99132.41;5049465;28;20036;-66
2023/03/20 04:22:38;;;;;;;6.78;3.42;;;;;;;8.00;100.00;99120.50;5037943;28;20029;-65
2023/03/20 04:25:05;;;;;;;4.90;2.90;;;;;;;7.99;100.00;99127.75;5039369;28;20035;-65
2023/03/20 04:27:30;;;;;;;4.78;2.88;;;;;;;7.99;100.00;99127.75;5036410;28;20033;-65
2023/03/20 04:29:56;;;;;;;4.75;3.00;;;;;;;8.02;100.00;99123.84;5044264;28;20123;-65
2023/03/20 04:32:22;;;;;;;5.47;3.67;;;;;;;8.03;100.00;99120.97;5032425;28;20048;-65
2023/03/20 04:34:47;;;;;;;6.15;4.25;;;;;;;8.06;100.00;99120.59;5037049;28;20542;-65
2023/03/20 04:37:13;;;;;;;4.40;3.25;;;;;;;8.06;100.00;99123.28;5037035;28;20454;-65
2023/03/20 04:39:41;;;;;;;4.35;2.70;;;;;;;8.09;100.00;99124.78;5035730;28;20091;-65
2023/03/20 04:42:07;;;;;;;5.60;3.00;;;;;;;8.09;100.00;99114.84;5037109;28;20033;-65
2023/03/20 04:44:33;;;;;;;3.40;2.35;;;;;;;8.21;100.00;99115.28;5032729;28;20059;-69
2023/03/20 04:46:58;;;;;;;3.20;1.77;;;;;;;8.19;100.00;99114.59;5028178;28;20588;-69
2023/03/20 04:49:23;;;;;;;5.18;1.77;;;;;;;8.17;100.00;99116.63;5031036;28;20516;-68
2023/03/20 04:51:49;;;;;;;2.38;1.80;;;;;;;8.18;100.00;99120.19;5035696;28;20024;-66
2023/03/20 04:54:15;;;;;;;3.47;1.73;;;;;;;8.15;100.00;99115.16;5041330;28;20029;-65
2023/03/20 04:56:41;;;;;;;2.22;1.67;;;;;;;8.17;100.00;99121.19;5028251;28;20029;-69
2023/03/20 04:59:06;;;;;;;3.80;1.83;;;;;;;8.19;100.00;99120.00;5035533;28;20024;-69
2023/03/20 05:01:33;;;;;;;3.88;2.30;;;;;;;8.21;100.00;99127.91;5034043;28;20028;-68
2023/03/20 05:04:00;;;;;;;3.17;1.92;;;;;;;8.25;100.00;99131.91;5032386;28;20028;-68
2023/03/20 05:06:33;;;;;;;4.22;2.35;;;;;;;8.24;100.00;99136.47;5036896;28;20036;-68
2023/03/20 05:09:00;;;;;;;3.33;2.15;;;;;;;8.25;100.00;99134.59;5034320;28;20065;-69
2023/03/20 05:11:26;;;;;;;2.63;1.90;;;;;;;8.25;100.00;99137.31;5033880;28;20020;-69
2023/03/20 05:14:01;;;;;;;2.78;1.95;;;;;;;8.25;100.00;99150.78;5031944;28;20024;-69
2023/03/20 05:16:31;;;;;;;3.50;2.22;;;;;;;8.18;100.00;99133.69;5037490;28;20381;-69
2023/03/20 05:18:56;;;;;;;3.47;2.65;;;;;;;8.27;100.00;99137.97;5047428;28;20032;-69
2023/03/20 05:21:22;;;;;;;3.20;2.38;;;;;;;8.21;100.00;99149.47;5052051;28;20033;-69
2023/03/20 05:23:48;;;;;;;4.97;3.00;;;;;;;8.21;100.00;99152.19;5035350;28;20027;-67
2023/03/20 05:26:13;;;;;;;5.88;3.63;;;;;;;8.14;100.00;99149.34;5036998;28;20017;-68
2023/03/20 05:28:39;;;;;;;5.40;3.03;;;;;;;8.15;100.00;99153.75;5032335;28;20027;-68
2023/03/20 05:31:05;;;;;;;4.25;2.80;;;;;;;8.09;100.00;99139.09;5038422;28;20432;-65
2023/03/20 05:33:31;;;;;;;5.80;3.17;;;;;;;8.12;100.00;99148.69;5031857;28;20025;-65
2023/03/20 05:35:57;;;;;;;7.00;4.13;;;;;;;8.07;100.00;99140.31;5035725;28;20024;-65
2023/03/20 05:38:22;;;;;;;8.63;4.57;;;;;;;8.08;100.00;99142.00;5031549;28;20036;-66
2023/03/20 05:40:48;;;;;;;7.05;3.55;;;;;;;8.13;100.00;99151.22;5040023;28;20025;-66
2023/03/20 05:43:14;;;;;;;4.53;2.55;;;;;;;8.12;100.00;99157.63;5035903;28;20032;-66
2023/03/20 05:45:41;;;;;;;5.57;2.40;;;;;;;8.15;100.00;99159.13;5032604;28;20025;-66
2023/03/20 05:48:07;;;;;;;4.10;2.20;;;;;;;8.21;100.00;99149.47;5033965;28;20025;-66
2023/03/20 05:50:32;;;;;;;3.10;2.20;;;;;;;8.27;100.00;99156.84;5050181;28;20021;-66
2023/03/20 05:52:57;;;;;;;3.55;2.25;;;;;;;8.25;100.00;99150.78;5048447;28;20040;-66
2023/03/20 05:55:23;;;;;;;3.10;2.10;;;;;;;8.28;100.00;99151.28;5035676;28;20115;-66
2023/03/20 05:57:49;;;;;;;5.68;2.03;;;;;;;8.35;100.00;99156.78;5049051;28;20026;-66
2023/03/20 06:00:16;;;;;;;2.55;1.80;;;;;;;8.42;100.00;99156.94;5035371;28;20031;-66
2023/03/20 06:02:41;;;;;;;9.40;2.72;;;;;;;8.43;100.00;99161.28;5031197;28;20052;-66
2023/03/20 06:05:07;;;;;;;6.70;2.50;;;;;;;8.48;100.00;99164.28;5034041;28;20112;-66
2023/03/20 06:07:32;;;;;;;3.97;2.53;;;;;;;8.51;100.00;99167.47;5034534;28;20075;-66
2023/03/20 06:09:59;;;;;;;4.28;2.25;;;;;;;8.56;100.00;99162.34;5039028;28;20031;-66
2023/03/20 06:12:24;;;;;;;3.97;2.45;;;;;;;8.60;100.00;99164.72;5034280;28;20021;-66
2023/03/20 06:14:50;;;;;;;3.45;2.03;;;;;;;8.66;100.00;99163.97;5035340;28;20032;-66
2023/03/20 06:17:15;;;;;;;3.75;2.50;;;;;;;8.69;100.00;99159.03;5032881;28;20067;-66
2023/03/20 06:19:41;;;;;;;3.65;2.10;;;;;;;8.76;100.00;99169.97;5032348;28;20029;-66
2023/03/20 06:22:07;;;;;;;3.85;2.25;;;;;;;8.82;100.00;99169.22;5028080;28;20060;-66
2023/03/20 06:24:34;;;;;;;6.15;2.35;;;;;;;8.89;100.00;99158.53;5027695;28;20075;-67
2023/03/20 06:26:59;;;;;;;2.58;2.15;;;;;;;8.96;100.00;99164.84;5032701;28;20121;-66
2023/03/20 06:29:27;;;;;;;5.60;1.98;;;;;;;9.03;100.00;99159.56;5023432;28;20029;-66
2023/03/20 06:31:53;;;;;;;4.55;2.00;;;;;;;9.07;100.00;99150.94;5030281;28;20033;-65
2023/03/20 06:34:18;;;;;;;3.00;1.92;;;;;;;9.14;100.00;99143.78;5034474;28;20025;-67
2023/03/20 06:36:44;;;;;;;3.63;2.30;;;;;;;9.17;100.00;99143.41;5032704;28;20456;-66
2023/03/20 06:39:09;;;;;;;7.07;2.83;;;;;;;9.21;100.00;99146.56;5028720;28;20035;-66
2023/03/20 06:41:35;;;;;;;6.25;2.75;;;;;;;9.28;100.00;99146.66;5027352;28;20059;-66
2023/03/20 06:44:00;;;;;;;4.20;2.50;;;;;;;9.31;100.00;99149.81;5030427;28;20029;-65
2023/03/20 06:46:29;;;;;;;3.72;2.35;;;;;;;9.25;100.00;99139.78;5029204;28;20024;-66
2023/03/20 06:48:54;;;;;;;3.30;2.20;;;;;;;9.31;100.00;99151.69;5032180;28;20529;-65
2023/03/20 06:51:20;;;;;;;4.93;2.35;;;;;;;9.30;100.00;99145.44;5030687;28;20037;-66
2023/03/20 06:53:45;;;;;;;2.83;1.75;;;;;;;9.39;100.00;99147.00;5037392;28;20156;-67
2023/03/20 06:56:12;;;;;;;4.18;2.38;;;;;;;9.52;100.00;99148.22;5036893;28;20583;-67
2023/03/20 06:58:38;;;;;;;4.13;2.20;;;;;;;9.69;100.00;99146.97;5029451;28;20036;-66
2023/03/20 07:01:12;;;;;;;3.33;1.90;;;;;;;9.66;100.00;99150.03;5026127;28;20386;-66
2023/03/20 07:03:37;;;;;;;5.45;2.47;;;;;;;9.83;100.00;99148.81;5031833;28;20036;-66
2023/03/20 07:06:06;;;;;;;4.05;1.98;;;;;;;10.04;100.00;99149.88;5029382;28;20438;-66
2023/03/20 07:08:32;;;;;;;3.67;2.00;;;;;;;10.45;100.00;99149.25;5033208;28;20102;-65
2023/03/20 07:10:58;;;;;;;3.15;1.90;;;;;;;10.57;100.00;99157.72;5035438;28;20032;-66
2023/03/20 07:13:25;;;;;;;4.97;1.92;;;;;;;10.60;100.00;99162.72;5040189;28;20017;-67
2023/03/20 07:15:50;;;;;;;2.72;1.80;;;;;;;10.48;100.00;99175.94;5044279;28;20043;-66
2023/03/20 07:18:16;;;;;;;2.08;1.20;;;;;;;10.42;100.00;99166.72;5040272;28;20663;-66
2023/03/20 07:20:41;;;;;;;3.63;1.70;;;;;;;10.25;100.00;99179.63;5034996;28;20116;-66
2023/03/20 07:23:07;;;;;;;2.70;1.50;;;;;;;10.10;100.00;99176.97;5031872;28;20017;-66
2023/03/20 07:25:33;;;;;;;2.78;1.58;;;;;;;10.06;100.00;99178.41;5022170;28;20039;-66
2023/03/20 07:27:58;;;;;;;3.33;1.38;;;;;;;9.84;100.00;99184.78;5029801;28;20116;-66
2023/03/20 07:30:24;;;;;;;2.50;1.40;;;;;;;9.78;100.00;99186.38;5035504;28;20048;-65
2023/03/20 07:32:49;;;;;;;3.22;1.88;;;;;;;9.87;100.00;99187.94;5035805;28;20052;-66
2023/03/20 07:35:15;;;;;;;3.72;2.08;;;;;;;9.86;100.00;99178.16;5037318;28;20033;-66
2023/03/20 07:37:41;;;;;;;2.55;1.70;;;;;;;10.08;100.00;99186.31;5037668;28;20037;-66
2023/03/20 07:40:08;;;;;;;2.90;1.60;;;;;;;10.31;100.00;99183.47;5039001;28;20037;-67
2023/03/20 07:42:33;;;;;;;2.88;1.63;;;;;;;10.47;100.00;99177.78;5032491;28;20110;-67
2023/03/20 07:44:59;;;;;;;3.92;1.50;;;;;;;10.79;100.00;99172.88;5037003;28;20083;-68
2023/03/20 07:47:24;;;;;;;1.67;1.33;;;;;;;10.88;100.00;99170.88;5043603;28;20387;-68
2023/03/20 07:49:50;;;;;;;2.25;1.65;;;;;;;11.06;100.00;99163.09;5042141;28;20039;-67
2023/03/20 07:52:16;;;;;;;3.92;1.90;;;;;;;10.98;100.00;99163.25;5039356;28;20090;-67
2023/03/20 07:54:41;;;;;;;1.90;1.50;;;;;;;11.15;100.00;99161.06;5039540;28;20511;-67
2023/03/20 07:57:07;;;;;;;3.03;1.60;;;;;;;11.57;100.00;99170.06;5038117;28;20029;-67
2023/03/20 07:59:32;;;;;;;2.53;1.67;;;;;;;12.04;100.00;99165.69;5032837;28;20025;-68
2023/03/20 08:01:59;;;;;;;2.55;1.50;;;;;;;12.31;100.00;99173.91;5029222;28;20453;-68
2023/03/20 08:04:24;;;;;;;5.65;1.50;;;;;;;12.85;100.00;99148.47;5032934;28;20476;-67
2023/03/20 08:06:50;;;;;;;3.47;1.23;;;;;;;12.60;100.00;99165.41;5037101;28;20036;-66
2023/03/20 08:09:16;;;;;;;2.17;1.13;;;;;;;12.58;100.00;99169.38;5036668;22;20391;-70
2023/03/20 08:11:42;;;;;;;4.32;1.65;;;;;;;12.55;100.00;99159.75;5013764;28;20025;-71
2023/03/20 08:14:07;;;;;;;2.45;1.90;;;;;;;12.37;100.00;99173.94;5027160;28;20025;-71
2023/03/20 08:16:32;;;;;;;2.22;1.75;;;;;;;12.09;100.00;99162.38;5024729;28;20054;-70
2023/03/20 08:19:00;;;;;;;2.83;1.60;;;;;;;11.82;100.00;99175.81;5023055;28;20053;-70
2023/03/20 08:21:29;;;;;;;4.88;2.22;;;;;;;11.39;100.00;99157.88;5016573;28;20022;-79
2023/03/20 08:23:55;;;;;;;2.60;2.03;;;;;;;10.82;100.00;99172.50;4999780;28;20088;-73
2023/03/20 08:26:21;;;;;;;3.35;2.00;;;;;;;10.93;100.00;99173.84;4995800;28;20030;-71
2023/03/20 08:28:46;;;;;;;3.22;1.90;;;;;;;11.00;100.00;99174.69;5010090;28;20026;-75
2023/03/20 08:31:12;;;;;;;2.50;1.80;;;;;;;11.29;100.00;99159.28;5008359;28;20014;-72
2023/03/20 08:33:37;;;;;;;3.45;2.20;;;;;;;11.55;100.00;99178.41;5015334;28;20537;-73
2023/03/20 08:36:03;;;;;;;2.97;1.95;;;;;;;11.48;100.00;99163.16;5015628;28;20030;-76
2023/03/20 08:38:28;;;;;;;2.92;1.90;;;;;;;11.42;100.00;99178.31;5002398;28;20392;-75
2023/03/20 08:40:54;;;;;;;3.22;1.88;;;;;;;11.61;100.00;99177.59;5008564;28;20391;-72
2023/03/20 08:43:19;;;;;;;3.40;2.20;;;;;;;11.72;100.00;99167.22;4992503;28;20038;-83
2023/03/20 08:45:45;;;;;;;3.25;1.85;;;;;;;12.03;100.00;99173.00;5006525;28;20395;-79
2023/03/20 08:48:10;;;;;;;9.98;1.80;;;;;;;12.57;100.00;99151.41;5005043;28;20032;-79
2023/03/20 08:50:37;;;;;;;3.17;2.00;;;;;;;13.47;100.00;99158.03;5012066;28;20092;-75
2023/03/20 08:53:02;;;;;;;2.80;1.70;;;;;;;13.74;100.00;99163.38;4996152;28;20541;-79
2023/03/20 08:55:28;;;;;;;3.72;1.95;;;;;;;14.49;100.00;99166.34;4993359;28;20038;-77
2023/03/20 08:57:55;;;;;;;5.03;1.90;;;;;;;15.98;100.00;99152.75;5000033;28;20036;-75
2023/03/20 09:00:22;;;;;;;3.35;1.50;;;;;;;16.07;100.00;99156.00;4998160;28;20033;-72
2023/03/20 09:02:48;;;;;;;3.85;1.58;;;;;;;16.10;100.00;99158.28;4993242;28;20032;-78
2023/03/20 09:05:13;;;;;;;2.45;1.80;;;;;;;16.04;100.00;99170.94;4995751;28;20018;-79
2023/03/20 09:07:39;;;;;;;2.55;1.55;;;;;;;16.06;100.00;99157.91;5000277;28;20056;-76
2023/03/20 09:10:05;;;;;;;2.63;1.80;;;;;;;16.02;100.00;99173.06;5012490;28;20025;-76
2023/03/20 09:12:31;;;;;;;4.22;2.35;;;;;;;15.53;100.00;99158.50;5013329;28;20088;-76
2023/03/20 09:14:58;;;;;;;2.75;1.92;;;;;;;15.01;100.00;99161.56;4999408;28;20056;-79
2023/03/20 09:17:23;;;;;;;5.32;2.00;;;;;;;14.87;100.00;99177.16;4996790;28;20061;-73
2023/03/20 09:19:48;;;;;;;3.50;2.10;;;;;;;13.88;100.00;99128.78;5014172;28;20061;-73
2023/03/20 09:22:14;;;;;;;6.18;2.17;;;;;;;13.90;100.00;99170.22;5011875;28;20025;-73
2023/03/20 09:24:39;;;;;;;3.60;1.85;;;;;;;13.63;100.00;99178.47;4997986;28;20067;-80
2023/03/20 09:27:05;;;;;;;5.88;1.88;;;;;;;13.25;100.00;99173.72;5007617;28;20026;-77
2023/03/20 09:29:30;;;;;;;5.30;2.63;;;;;;;12.31;100.00;99125.91;4999149;28;20022;-77
2023/03/20 09:31:56;;;;;;;4.32;2.00;;;;;;;12.63;100.00;99145.16;4997679;28;20396;-72
2023/03/20 09:34:23;;;;;;;3.97;2.15;;;;;;;13.12;100.00;99180.00;4993183;28;20084;-73
2023/03/20 09:36:48;;;;;;;3.83;2.22;;;;;;;12.86;100.00;99167.28;5013812;28;20037;-69
2023/03/20 09:39:13;;;;;;;2.85;2.13;;;;;;;13.03;100.00;99172.28;4990233;28;20030;-74
2023/03/20 09:41:39;;;;;;;4.28;2.28;;;;;;;13.07;100.00;99176.25;4992637;28;20029;-73
2023/03/20 09:44:16;;;;;;;3.85;2.45;;;;;;;13.24;100.00;99180.19;4995715;28;20095;-73
2023/03/20 09:46:48;;;;;;;3.08;1.95;;;;;;;13.48;100.00;99180.59;5006456;28;20038;-74
2023/03/20 09:49:32;;;;;;;3.55;2.33;;;;;;;13.63;100.00;99185.81;5009429;28;20025;-73
2023/03/20 09:52:03;;;;;;;5.85;2.50;;;;;;;13.68;100.00;99186.00;4993689;28;20057;-75
2023/03/20 09:54:35;;;;;;;5.00;2.30;;;;;;;13.84;100.00;99188.25;5013086;28;20058;-73
2023/03/20 09:57:02;;;;;;;3.50;2.60;;;;;;;13.54;100.00;99188.72;5013305;28;20030;-73
2023/03/20 09:59:31;;;;;;;7.95;2.78;;;;;;;13.36;100.00;99177.69;4996157;28;20033;-73
2023/03/20 10:02:04;;;;;;;4.30;2.63;;;;;;;13.65;100.00;99198.13;4991532;28;20117;-74
2023/03/20 10:04:29;;;;;;;6.05;2.80;;;;;;;13.43;100.00;99170.38;4999959;28;20034;-73
2023/03/20 10:06:58;;;;;;;5.25;3.10;;;;;;;13.42;100.00;99166.00;4998707;28;20026;-73
2023/03/20 10:09:25;;;;;;;6.22;2.63;;;;;;;14.59;100.00;99191.22;5012375;28;20033;-73
2023/03/20 10:12:28;;;;;;;5.57;2.80;;;;;;;15.40;100.00;99181.28;5012505;28;20494;-74
2023/03/20 10:15:07;;;;;;;3.55;2.33;;;;;;;16.22;100.00;99186.47;4998060;28;20033;-74
2023/03/20 10:18:00;;;;;;;4.17;2.30;;;;;;;17.47;100.00;99171.84;4989683;28;20127;-73
2023/03/20 10:20:41;;;;;;;3.83;2.30;;;;;;;17.47;100.00;99184.69;5010089;28;20029;-74
2023/03/20 10:23:27;;;;;;;5.68;2.58;;;;;;;16.72;100.00;99180.69;4987964;28;20060;-73
2023/03/20 10:25:58;;;;;;;4.78;3.13;;;;;;;15.85;100.00;99182.94;5007095;28;20038;-77
2023/03/20 10:28:42;;;;;;;4.15;2.80;;;;;;;14.81;100.00;99188.97;5028046;28;20026;-76
2023/03/20 10:31:26;;;;;;;5.13;2.90;;;;;;;14.30;100.00;99200.78;5018205;28;20022;-78
2023/03/20 10:34:08;;;;;;;4.68;3.17;;;;;;;13.88;100.00;99196.78;5006526;28;20057;-78
2023/03/20 10:36:44;;;;;;;4.40;2.63;;;;;;;13.77;100.00;99182.81;4985426;28;20450;-75
2023/03/20 10:39:28;;;;;;;5.43;3.15;;;;;;;13.87;100.00;99184.25;5008468;28;20121;-74
2023/03/20 10:41:57;;;;;;;4.57;2.85;;;;;;;14.07;100.00;99182.28;4992647;28;20032;-72
2023/03/20 10:44:47;;;;;;;5.55;3.38;;;;;;;14.31;100.00;99183.41;5012746;28;20057;-72
2023/03/20 10:47:17;;;;;;;5.72;2.65;;;;;;;14.50;100.00;99186.22;5022049;28;20018;-78
2023/03/20 10:49:53;;;;;;;4.55;2.78;;;;;;;14.51;100.00;99163.38;5026432;28;20049;-72
2023/03/20 10:52:31;;;;;;;3.83;2.60;;;;;;;14.56;100.00;99179.94;4996033;28;20118;-75
2023/03/20 10:55:04;;;;;;;5.03;2.75;;;;;;;15.06;100.00;99179.94;5000164;28;20034;-73
2023/03/20 10:57:37;;;;;;;6.05;3.38;;;;;;;15.71;100.00;99166.72;5013460;28;20041;-76
2023/03/20 11:00:09;;;;;;;5.13;3.03;;;;;;;15.77;100.00;99175.88;4998360;28;20032;-70
2023/03/20 11:02:35;;;;;;;5.35;3.45;;;;;;;16.31;100.00;99179.59;4992577;28;20033;-71
2023/03/20 11:05:19;;;;;;;6.63;3.03;;;;;;;16.96;100.00;99178.03;4991212;28;20026;-70
2023/03/20 11:07:46;;;;;;;5.00;3.10;;;;;;;17.72;100.00;99168.84;4987719;28;20022;-71
2023/03/20 11:10:15;;;;;;;6.63;3.05;;;;;;;18.72;92.43;99168.59;5009590;28;20092;-77
2023/03/20 11:12:46;;;;;;;4.75;3.00;;;;;;;18.47;83.66;99152.53;4994506;28;20021;-79
2023/03/20 11:15:19;;;;;;;5.60;3.00;;;;;;;17.92;79.24;99160.28;5018672;28;20038;-81
2023/03/20 11:18:02;;;;;;;4.95;2.63;;;;;;;19.27;79.77;99146.75;5020825;28;20052;-81
2023/03/20 11:20:38;;;;;;;4.15;2.88;;;;;;;20.34;77.53;99169.31;4984845;28;20473;-73
2023/03/20 11:23:09;;;;;;;4.55;3.17;;;;;;;19.97;72.65;99162.84;4985090;28;20026;-77
2023/03/20 11:26:04;;;;;;;6.53;3.30;;;;;;;19.03;78.50;99168.06;4996709;28;20458;-75
2023/03/20 11:28:46;;;;;;;4.53;3.30;;;;;;;19.43;77.70;99167.03;5012630;28;20112;-79
2023/03/20 11:31:12;;;;;;;4.40;3.40;;;;;;;19.57;75.25;99163.91;4983324;28;20029;-77
2023/03/20 11:33:42;;;;;;;5.35;3.38;;;;;;;20.90;70.12;99163.53;4997398;28;20022;-82
2023/03/20 11:36:20;;;;;;;5.35;3.50;;;;;;;21.61;64.98;99148.63;4993269;28;20037;-77
2023/03/20 11:38:46;;;;;;;4.70;2.95;;;;;;;22.50;62.06;99144.84;5013213;28;20067;-76
2023/03/20 11:41:22;;;;;;;6.35;3.40;;;;;;;21.91;60.84;99147.16;5007786;28;20034;-78
2023/03/20 11:43:47;;;;;;;4.80;3.20;;;;;;;21.09;61.67;99150.22;5005177;28;20028;-75
2023/03/20 11:46:13;;;;;;;5.43;3.30;;;;;;;20.49;64.08;99126.59;4990035;28;20030;-77
2023/03/20 11:48:41;;;;;;;4.80;2.88;;;;;;;20.06;64.95;99137.38;5017382;28;20041;-77